sensor_id;sensor_type;location;lat;lon;timestamp;P1;durP1;ratioP1;P2;durP2;ratioP2
35803;SDS011;21924;51.934;7.414;2023-04-28T00:02:22;10.50;;;4.50;;
35803;SDS011;21924;51.934;7.414;2023-04-28T00:05:07;8.40;;;4.05;;
35803;SDS011;21924;51.934;7.414;2023-04-28T00:07:51;9.15;;;4.70;;
35803;SDS011;21924;51.934;7.414;2023-04-28T00:10:36;9.60;;;4.45;;
35803;SDS011;21924;51.934;7.414;2023-04-28T00:13:20;7.00;;;4.35;;
35803;SDS011;21924;51.934;7.414;2023-04-28T00:16:04;6.55;;;4.15;;
35803;SDS011;21924;51.934;7.414;2023-04-28T00:18:49;7.38;;;4.20;;
35803;SDS011;21924;51.934;7.414;2023-04-28T00:21:33;9.50;;;5.00;;
35803;SDS011;21924;51.934;7.414;2023-04-28T00:24:18;8.02;;;4.85;;
35803;SDS011;21924;51.934;7.414;2023-04-28T00:27:02;7.00;;;3.97;;
35803;SDS011;21924;51.934;7.414;2023-04-28T00:29:47;5.75;;;4.60;;
35803;SDS011;21924;51.934;7.414;2023-04-28T00:32:31;6.32;;;4.15;;
35803;SDS011;21924;51.934;7.414;2023-04-28T00:35:15;6.82;;;4.53;;
35803;SDS011;21924;51.934;7.414;2023-04-28T00:37:59;6.95;;;4.07;;
35803;SDS011;21924;51.934;7.414;2023-04-28T00:40:44;7.10;;;4.43;;
35803;SDS011;21924;51.934;7.414;2023-04-28T00:43:27;6.88;;;4.60;;
35803;SDS011;21924;51.934;7.414;2023-04-28T00:46:16;8.18;;;4.70;;
35803;SDS011;21924;51.934;7.414;2023-04-28T00:49:06;12.60;;;4.85;;
35803;SDS011;21924;51.934;7.414;2023-04-28T00:51:50;10.10;;;4.07;;
35803;SDS011;21924;51.934;7.414;2023-04-28T00:54:34;6.85;;;4.07;;
35803;SDS011;21924;51.934;7.414;2023-04-28T00:57:19;7.95;;;4.03;;
35803;SDS011;21924;51.934;7.414;2023-04-28T01:00:03;11.50;;;5.20;;
35803;SDS011;21924;51.934;7.414;2023-04-28T01:02:52;11.52;;;4.35;;
35803;SDS011;21924;51.934;7.414;2023-04-28T01:05:37;6.82;;;4.35;;
35803;SDS011;21924;51.934;7.414;2023-04-28T01:08:22;8.77;;;4.32;;
35803;SDS011;21924;51.934;7.414;2023-04-28T01:11:07;5.32;;;4.18;;
35803;SDS011;21924;51.934;7.414;2023-04-28T01:13:53;10.30;;;4.43;;
35803;SDS011;21924;51.934;7.414;2023-04-28T01:16:37;7.63;;;4.55;;
35803;SDS011;21924;51.934;7.414;2023-04-28T01:19:22;10.73;;;4.60;;
35803;SDS011;21924;51.934;7.414;2023-04-28T01:22:06;11.68;;;4.47;;
35803;SDS011;21924;51.934;7.414;2023-04-28T01:24:53;12.40;;;4.70;;
35803;SDS011;21924;51.934;7.414;2023-04-28T01:27:37;6.03;;;4.25;;
35803;SDS011;21924;51.934;7.414;2023-04-28T01:30:21;7.25;;;4.97;;
35803;SDS011;21924;51.934;7.414;2023-04-28T01:33:05;8.50;;;4.75;;
35803;SDS011;21924;51.934;7.414;2023-04-28T01:35:50;7.47;;;4.68;;
35803;SDS011;21924;51.934;7.414;2023-04-28T01:38:34;6.00;;;4.68;;
35803;SDS011;21924;51.934;7.414;2023-04-28T01:41:18;10.40;;;4.40;;
35803;SDS011;21924;51.934;7.414;2023-04-28T01:44:02;10.35;;;4.72;;
35803;SDS011;21924;51.934;7.414;2023-04-28T01:46:47;11.82;;;5.07;;
35803;SDS011;21924;51.934;7.414;2023-04-28T01:49:31;6.80;;;4.40;;
35803;SDS011;21924;51.934;7.414;2023-04-28T01:52:15;17.02;;;4.93;;
35803;SDS011;21924;51.934;7.414;2023-04-28T01:55:02;11.30;;;4.78;;
35803;SDS011;21924;51.934;7.414;2023-04-28T01:57:46;7.47;;;4.30;;
35803;SDS011;21924;51.934;7.414;2023-04-28T02:00:30;8.98;;;4.57;;
35803;SDS011;21924;51.934;7.414;2023-04-28T02:03:15;9.60;;;4.53;;
35803;SDS011;21924;51.934;7.414;2023-04-28T02:05:59;9.18;;;4.80;;
35803;SDS011;21924;51.934;7.414;2023-04-28T02:08:44;6.00;;;3.88;;
35803;SDS011;21924;51.934;7.414;2023-04-28T02:11:28;8.35;;;4.78;;
35803;SDS011;21924;51.934;7.414;2023-04-28T02:14:12;5.93;;;4.30;;
35803;SDS011;21924;51.934;7.414;2023-04-28T02:16:59;12.90;;;4.85;;
35803;SDS011;21924;51.934;7.414;2023-04-28T02:19:45;10.05;;;4.78;;
35803;SDS011;21924;51.934;7.414;2023-04-28T02:22:29;8.88;;;4.38;;
35803;SDS011;21924;51.934;7.414;2023-04-28T02:25:14;9.57;;;5.63;;
35803;SDS011;21924;51.934;7.414;2023-04-28T02:27:58;9.00;;;4.80;;
35803;SDS011;21924;51.934;7.414;2023-04-28T02:30:42;10.27;;;5.72;;
35803;SDS011;21924;51.934;7.414;2023-04-28T02:33:26;12.05;;;5.18;;
35803;SDS011;21924;51.934;7.414;2023-04-28T02:36:11;11.50;;;5.32;;
35803;SDS011;21924;51.934;7.414;2023-04-28T02:38:55;19.95;;;7.63;;
35803;SDS011;21924;51.934;7.414;2023-04-28T02:41:39;10.10;;;5.13;;
35803;SDS011;21924;51.934;7.414;2023-04-28T02:44:23;13.20;;;5.90;;
35803;SDS011;21924;51.934;7.414;2023-04-28T02:47:08;10.75;;;5.03;;
35803;SDS011;21924;51.934;7.414;2023-04-28T02:49:52;13.32;;;5.68;;
35803;SDS011;21924;51.934;7.414;2023-04-28T02:52:37;9.63;;;5.40;;
35803;SDS011;21924;51.934;7.414;2023-04-28T02:55:21;10.10;;;5.38;;
35803;SDS011;21924;51.934;7.414;2023-04-28T02:58:06;11.27;;;4.68;;
35803;SDS011;21924;51.934;7.414;2023-04-28T03:00:50;8.35;;;5.22;;
35803;SDS011;21924;51.934;7.414;2023-04-28T03:03:35;12.18;;;5.55;;
35803;SDS011;21924;51.934;7.414;2023-04-28T03:06:19;12.43;;;5.68;;
35803;SDS011;21924;51.934;7.414;2023-04-28T03:09:03;14.00;;;6.00;;
35803;SDS011;21924;51.934;7.414;2023-04-28T03:11:48;9.43;;;5.07;;
35803;SDS011;21924;51.934;7.414;2023-04-28T03:14:32;10.00;;;5.25;;
35803;SDS011;21924;51.934;7.414;2023-04-28T03:17:16;11.30;;;5.55;;
35803;SDS011;21924;51.934;7.414;2023-04-28T03:20:01;9.98;;;5.53;;
35803;SDS011;21924;51.934;7.414;2023-04-28T03:22:45;10.20;;;4.95;;
35803;SDS011;21924;51.934;7.414;2023-04-28T03:25:29;9.07;;;4.75;;
35803;SDS011;21924;51.934;7.414;2023-04-28T03:28:13;9.32;;;4.93;;
35803;SDS011;21924;51.934;7.414;2023-04-28T03:30:58;8.85;;;5.75;;
35803;SDS011;21924;51.934;7.414;2023-04-28T03:33:43;8.95;;;5.38;;
35803;SDS011;21924;51.934;7.414;2023-04-28T03:36:29;10.45;;;5.38;;
35803;SDS011;21924;51.934;7.414;2023-04-28T03:39:14;8.85;;;5.18;;
35803;SDS011;21924;51.934;7.414;2023-04-28T03:41:58;8.27;;;5.10;;
35803;SDS011;21924;51.934;7.414;2023-04-28T03:44:43;13.93;;;5.53;;
35803;SDS011;21924;51.934;7.414;2023-04-28T03:47:27;10.43;;;5.75;;
35803;SDS011;21924;51.934;7.414;2023-04-28T03:50:11;14.05;;;6.63;;
35803;SDS011;21924;51.934;7.414;2023-04-28T03:52:56;12.35;;;6.38;;
35803;SDS011;21924;51.934;7.414;2023-04-28T03:55:40;10.75;;;6.20;;
35803;SDS011;21924;51.934;7.414;2023-04-28T03:58:24;13.45;;;6.40;;
35803;SDS011;21924;51.934;7.414;2023-04-28T04:01:08;13.77;;;7.07;;
35803;SDS011;21924;51.934;7.414;2023-04-28T04:03:53;13.68;;;7.40;;
35803;SDS011;21924;51.934;7.414;2023-04-28T04:06:37;13.55;;;6.15;;
35803;SDS011;21924;51.934;7.414;2023-04-28T04:09:21;12.70;;;6.63;;
35803;SDS011;21924;51.934;7.414;2023-04-28T04:12:06;13.02;;;6.15;;
35803;SDS011;21924;51.934;7.414;2023-04-28T04:14:50;13.20;;;6.78;;
35803;SDS011;21924;51.934;7.414;2023-04-28T04:17:34;13.75;;;6.15;;
35803;SDS011;21924;51.934;7.414;2023-04-28T04:20:19;14.15;;;7.75;;
35803;SDS011;21924;51.934;7.414;2023-04-28T04:23:03;12.93;;;7.07;;
35803;SDS011;21924;51.934;7.414;2023-04-28T04:25:48;13.77;;;6.50;;
35803;SDS011;21924;51.934;7.414;2023-04-28T04:28:32;12.57;;;6.07;;
35803;SDS011;21924;51.934;7.414;2023-04-28T04:31:17;14.00;;;6.80;;
35803;SDS011;21924;51.934;7.414;2023-04-28T04:34:02;11.43;;;7.20;;
35803;SDS011;21924;51.934;7.414;2023-04-28T04:36:46;14.23;;;6.82;;
35803;SDS011;21924;51.934;7.414;2023-04-28T04:39:31;11.70;;;6.72;;
35803;SDS011;21924;51.934;7.414;2023-04-28T04:42:16;11.25;;;6.38;;
35803;SDS011;21924;51.934;7.414;2023-04-28T04:45:00;22.25;;;7.75;;
35803;SDS011;21924;51.934;7.414;2023-04-28T04:47:44;11.80;;;6.75;;
35803;SDS011;21924;51.934;7.414;2023-04-28T04:50:28;12.77;;;7.03;;
35803;SDS011;21924;51.934;7.414;2023-04-28T04:53:13;16.77;;;7.80;;
35803;SDS011;21924;51.934;7.414;2023-04-28T04:55:57;14.82;;;7.75;;
35803;SDS011;21924;51.934;7.414;2023-04-28T04:58:42;12.57;;;7.35;;
35803;SDS011;21924;51.934;7.414;2023-04-28T05:01:29;16.70;;;6.45;;
35803;SDS011;21924;51.934;7.414;2023-04-28T05:04:14;15.60;;;8.10;;
35803;SDS011;21924;51.934;7.414;2023-04-28T05:06:58;11.48;;;7.50;;
35803;SDS011;21924;51.934;7.414;2023-04-28T05:09:42;15.73;;;7.88;;
35803;SDS011;21924;51.934;7.414;2023-04-28T05:12:26;14.73;;;7.55;;
35803;SDS011;21924;51.934;7.414;2023-04-28T05:15:11;16.75;;;7.80;;
35803;SDS011;21924;51.934;7.414;2023-04-28T05:17:55;17.02;;;7.53;;
35803;SDS011;21924;51.934;7.414;2023-04-28T05:20:40;12.77;;;8.05;;
35803;SDS011;21924;51.934;7.414;2023-04-28T05:23:24;15.48;;;8.07;;
35803;SDS011;21924;51.934;7.414;2023-04-28T05:26:08;14.50;;;7.53;;
35803;SDS011;21924;51.934;7.414;2023-04-28T05:28:53;13.50;;;8.00;;
35803;SDS011;21924;51.934;7.414;2023-04-28T05:31:37;17.05;;;7.80;;
35803;SDS011;21924;51.934;7.414;2023-04-28T05:34:21;13.90;;;7.95;;
35803;SDS011;21924;51.934;7.414;2023-04-28T05:37:05;15.75;;;8.07;;
35803;SDS011;21924;51.934;7.414;2023-04-28T05:39:50;15.32;;;8.15;;
35803;SDS011;21924;51.934;7.414;2023-04-28T05:42:34;12.63;;;7.93;;
35803;SDS011;21924;51.934;7.414;2023-04-28T05:45:18;15.32;;;8.27;;
35803;SDS011;21924;51.934;7.414;2023-04-28T05:48:03;22.48;;;9.32;;
35803;SDS011;21924;51.934;7.414;2023-04-28T05:50:47;16.70;;;9.93;;
35803;SDS011;21924;51.934;7.414;2023-04-28T05:53:32;15.85;;;8.45;;
35803;SDS011;21924;51.934;7.414;2023-04-28T05:56:16;22.45;;;10.10;;
35803;SDS011;21924;51.934;7.414;2023-04-28T05:59:01;17.48;;;9.48;;
35803;SDS011;21924;51.934;7.414;2023-04-28T06:01:47;24.15;;;9.68;;
35803;SDS011;21924;51.934;7.414;2023-04-28T06:04:32;16.20;;;9.40;;
35803;SDS011;21924;51.934;7.414;2023-04-28T06:07:16;19.95;;;9.60;;
35803;SDS011;21924;51.934;7.414;2023-04-28T06:10:00;17.17;;;9.60;;
35803;SDS011;21924;51.934;7.414;2023-04-28T06:12:45;16.30;;;9.50;;
35803;SDS011;21924;51.934;7.414;2023-04-28T06:15:29;24.77;;;9.57;;
35803;SDS011;21924;51.934;7.414;2023-04-28T06:18:13;14.25;;;9.13;;
35803;SDS011;21924;51.934;7.414;2023-04-28T06:20:58;15.43;;;9.00;;
35803;SDS011;21924;51.934;7.414;2023-04-28T06:23:43;16.55;;;9.55;;
35803;SDS011;21924;51.934;7.414;2023-04-28T06:26:27;17.10;;;8.68;;
35803;SDS011;21924;51.934;7.414;2023-04-28T06:29:12;14.75;;;8.73;;
35803;SDS011;21924;51.934;7.414;2023-04-28T06:31:56;17.33;;;8.98;;
35803;SDS011;21924;51.934;7.414;2023-04-28T06:34:41;22.08;;;9.85;;
35803;SDS011;21924;51.934;7.414;2023-04-28T06:37:25;22.20;;;10.57;;
35803;SDS011;21924;51.934;7.414;2023-04-28T06:40:10;21.85;;;9.10;;
35803;SDS011;21924;51.934;7.414;2023-04-28T06:42:54;23.27;;;9.55;;
35803;SDS011;21924;51.934;7.414;2023-04-28T06:45:38;17.15;;;9.25;;
35803;SDS011;21924;51.934;7.414;2023-04-28T06:48:22;16.35;;;9.18;;
35803;SDS011;21924;51.934;7.414;2023-04-28T06:51:08;21.90;;;9.75;;
35803;SDS011;21924;51.934;7.414;2023-04-28T06:53:53;24.33;;;10.45;;
35803;SDS011;21924;51.934;7.414;2023-04-28T06:56:37;21.63;;;10.02;;
35803;SDS011;21924;51.934;7.414;2023-04-28T06:59:21;21.17;;;10.00;;
35803;SDS011;21924;51.934;7.414;2023-04-28T07:02:05;18.00;;;10.23;;
35803;SDS011;21924;51.934;7.414;2023-04-28T07:04:50;16.10;;;10.18;;
35803;SDS011;21924;51.934;7.414;2023-04-28T07:07:34;15.88;;;9.40;;
35803;SDS011;21924;51.934;7.414;2023-04-28T07:10:21;17.30;;;9.93;;
35803;SDS011;21924;51.934;7.414;2023-04-28T07:13:06;23.08;;;9.65;;
35803;SDS011;21924;51.934;7.414;2023-04-28T07:15:50;17.15;;;9.73;;
35803;SDS011;21924;51.934;7.414;2023-04-28T07:18:34;19.10;;;9.13;;
35803;SDS011;21924;51.934;7.414;2023-04-28T07:21:19;12.77;;;8.80;;
35803;SDS011;21924;51.934;7.414;2023-04-28T07:24:04;15.88;;;9.23;;
35803;SDS011;21924;51.934;7.414;2023-04-28T07:26:49;13.98;;;9.43;;
35803;SDS011;21924;51.934;7.414;2023-04-28T07:29:34;18.10;;;9.57;;
35803;SDS011;21924;51.934;7.414;2023-04-28T07:32:18;18.63;;;9.82;;
35803;SDS011;21924;51.934;7.414;2023-04-28T07:35:02;15.77;;;9.70;;
35803;SDS011;21924;51.934;7.414;2023-04-28T07:37:47;15.48;;;8.60;;
35803;SDS011;21924;51.934;7.414;2023-04-28T07:40:31;17.30;;;9.60;;
35803;SDS011;21924;51.934;7.414;2023-04-28T07:43:15;17.60;;;9.02;;
35803;SDS011;21924;51.934;7.414;2023-04-28T07:45:59;18.77;;;9.48;;
35803;SDS011;21924;51.934;7.414;2023-04-28T07:48:43;17.13;;;9.48;;
35803;SDS011;21924;51.934;7.414;2023-04-28T07:51:28;17.50;;;9.07;;
35803;SDS011;21924;51.934;7.414;2023-04-28T07:54:12;16.58;;;10.07;;
35803;SDS011;21924;51.934;7.414;2023-04-28T07:56:56;17.48;;;9.73;;
35803;SDS011;21924;51.934;7.414;2023-04-28T07:59:40;23.50;;;10.52;;
35803;SDS011;21924;51.934;7.414;2023-04-28T08:02:25;20.60;;;10.80;;
35803;SDS011;21924;51.934;7.414;2023-04-28T08:05:09;21.45;;;11.35;;
35803;SDS011;21924;51.934;7.414;2023-04-28T08:07:54;16.55;;;10.63;;
35803;SDS011;21924;51.934;7.414;2023-04-28T08:10:38;20.63;;;10.90;;
35803;SDS011;21924;51.934;7.414;2023-04-28T08:13:24;23.35;;;12.32;;
35803;SDS011;21924;51.934;7.414;2023-04-28T08:16:10;20.92;;;11.27;;
35803;SDS011;21924;51.934;7.414;2023-04-28T08:18:54;25.08;;;11.85;;
35803;SDS011;21924;51.934;7.414;2023-04-28T08:21:38;25.15;;;11.73;;
35803;SDS011;21924;51.934;7.414;2023-04-28T08:24:24;19.73;;;12.23;;
35803;SDS011;21924;51.934;7.414;2023-04-28T08:27:08;22.07;;;11.63;;
35803;SDS011;21924;51.934;7.414;2023-04-28T08:29:52;25.92;;;11.65;;
35803;SDS011;21924;51.934;7.414;2023-04-28T08:32:37;20.48;;;12.02;;
35803;SDS011;21924;51.934;7.414;2023-04-28T08:35:21;23.85;;;11.77;;
35803;SDS011;21924;51.934;7.414;2023-04-28T08:38:06;19.77;;;12.68;;
35803;SDS011;21924;51.934;7.414;2023-04-28T08:40:51;18.33;;;11.18;;
35803;SDS011;21924;51.934;7.414;2023-04-28T08:43:35;19.33;;;10.07;;
35803;SDS011;21924;51.934;7.414;2023-04-28T08:46:20;21.48;;;11.43;;
35803;SDS011;21924;51.934;7.414;2023-04-28T08:49:05;18.58;;;11.00;;
35803;SDS011;21924;51.934;7.414;2023-04-28T08:51:55;17.80;;;10.45;;
35803;SDS011;21924;51.934;7.414;2023-04-28T08:54:42;16.85;;;9.98;;
35803;SDS011;21924;51.934;7.414;2023-04-28T08:57:27;20.38;;;10.23;;
35803;SDS011;21924;51.934;7.414;2023-04-28T09:00:17;15.02;;;8.90;;
35803;SDS011;21924;51.934;7.414;2023-04-28T09:03:01;15.48;;;9.30;;
35803;SDS011;21924;51.934;7.414;2023-04-28T09:05:46;16.15;;;10.35;;
35803;SDS011;21924;51.934;7.414;2023-04-28T09:08:31;12.40;;;8.00;;
35803;SDS011;21924;51.934;7.414;2023-04-28T09:11:16;21.42;;;9.18;;
35803;SDS011;21924;51.934;7.414;2023-04-28T09:14:11;17.70;;;9.02;;
35803;SDS011;21924;51.934;7.414;2023-04-28T09:16:55;18.23;;;9.53;;
35803;SDS011;21924;51.934;7.414;2023-04-28T09:19:40;16.98;;;8.80;;
35803;SDS011;21924;51.934;7.414;2023-04-28T09:22:27;15.77;;;8.05;;
35803;SDS011;21924;51.934;7.414;2023-04-28T09:25:12;19.00;;;8.68;;
35803;SDS011;21924;51.934;7.414;2023-04-28T09:27:57;13.60;;;8.00;;
35803;SDS011;21924;51.934;7.414;2023-04-28T09:30:41;13.35;;;8.40;;
35803;SDS011;21924;51.934;7.414;2023-04-28T09:33:25;18.33;;;9.07;;
35803;SDS011;21924;51.934;7.414;2023-04-28T09:36:09;11.70;;;8.00;;
35803;SDS011;21924;51.934;7.414;2023-04-28T09:38:56;14.88;;;8.35;;
35803;SDS011;21924;51.934;7.414;2023-04-28T09:41:41;13.95;;;8.77;;
35803;SDS011;21924;51.934;7.414;2023-04-28T09:44:26;16.88;;;8.48;;
35803;SDS011;21924;51.934;7.414;2023-04-28T09:47:20;16.30;;;8.55;;
35803;SDS011;21924;51.934;7.414;2023-04-28T09:50:05;13.25;;;8.25;;
35803;SDS011;21924;51.934;7.414;2023-04-28T09:52:55;17.52;;;7.97;;
35803;SDS011;21924;51.934;7.414;2023-04-28T09:55:40;15.40;;;8.07;;
35803;SDS011;21924;51.934;7.414;2023-04-28T09:58:28;13.75;;;8.35;;
35803;SDS011;21924;51.934;7.414;2023-04-28T10:01:14;13.20;;;8.55;;
35803;SDS011;21924;51.934;7.414;2023-04-28T10:03:59;14.63;;;9.32;;
35803;SDS011;21924;51.934;7.414;2023-04-28T10:09:30;16.75;;;9.30;;
35803;SDS011;21924;51.934;7.414;2023-04-28T10:12:21;14.00;;;8.43;;
35803;SDS011;21924;51.934;7.414;2023-04-28T10:15:07;13.82;;;8.60;;
35803;SDS011;21924;51.934;7.414;2023-04-28T10:17:52;16.92;;;9.68;;
35803;SDS011;21924;51.934;7.414;2023-04-28T10:20:37;15.10;;;8.88;;
35803;SDS011;21924;51.934;7.414;2023-04-28T10:27:01;17.10;;;7.97;;
35803;SDS011;21924;51.934;7.414;2023-04-28T10:29:49;15.25;;;9.35;;
35803;SDS011;21924;51.934;7.414;2023-04-28T10:32:33;17.75;;;9.68;;
35803;SDS011;21924;51.934;7.414;2023-04-28T10:40:57;16.40;;;10.00;;
35803;SDS011;21924;51.934;7.414;2023-04-28T10:43:46;18.63;;;9.60;;
35803;SDS011;21924;51.934;7.414;2023-04-28T10:46:42;16.83;;;10.30;;
35803;SDS011;21924;51.934;7.414;2023-04-28T10:55:29;16.77;;;10.13;;
35803;SDS011;21924;51.934;7.414;2023-04-28T11:04:07;16.23;;;11.07;;
35803;SDS011;21924;51.934;7.414;2023-04-28T11:07:09;17.63;;;11.00;;
35803;SDS011;21924;51.934;7.414;2023-04-28T11:09:56;17.98;;;12.50;;
35803;SDS011;21924;51.934;7.414;2023-04-28T11:16:02;18.70;;;13.07;;
35803;SDS011;21924;51.934;7.414;2023-04-28T11:18:51;17.85;;;12.40;;
35803;SDS011;21924;51.934;7.414;2023-04-28T11:21:36;19.95;;;13.10;;
35803;SDS011;21924;51.934;7.414;2023-04-28T11:27:11;18.63;;;11.80;;
35803;SDS011;21924;51.934;7.414;2023-04-28T11:30:24;21.00;;;10.40;;
35803;SDS011;21924;51.934;7.414;2023-04-28T11:33:11;20.30;;;13.02;;
35803;SDS011;21924;51.934;7.414;2023-04-28T11:35:55;17.42;;;11.55;;
35803;SDS011;21924;51.934;7.414;2023-04-28T11:38:43;20.88;;;11.65;;
35803;SDS011;21924;51.934;7.414;2023-04-28T11:41:27;18.42;;;12.05;;
35803;SDS011;21924;51.934;7.414;2023-04-28T11:44:12;17.27;;;10.75;;
35803;SDS011;21924;51.934;7.414;2023-04-28T11:47:04;21.30;;;12.07;;
35803;SDS011;21924;51.934;7.414;2023-04-28T11:49:49;17.17;;;11.57;;
35803;SDS011;21924;51.934;7.414;2023-04-28T11:52:34;19.33;;;11.30;;
35803;SDS011;21924;51.934;7.414;2023-04-28T11:55:18;17.67;;;11.90;;
35803;SDS011;21924;51.934;7.414;2023-04-28T11:58:19;16.67;;;12.43;;
35803;SDS011;21924;51.934;7.414;2023-04-28T12:01:11;17.83;;;13.00;;
35803;SDS011;21924;51.934;7.414;2023-04-28T12:03:57;21.08;;;13.40;;
35803;SDS011;21924;51.934;7.414;2023-04-28T12:06:42;19.35;;;12.80;;
35803;SDS011;21924;51.934;7.414;2023-04-28T12:09:26;21.40;;;13.23;;
35803;SDS011;21924;51.934;7.414;2023-04-28T12:12:11;18.15;;;12.93;;
35803;SDS011;21924;51.934;7.414;2023-04-28T12:15:01;20.92;;;13.18;;
35803;SDS011;21924;51.934;7.414;2023-04-28T12:17:50;21.58;;;11.85;;
35803;SDS011;21924;51.934;7.414;2023-04-28T12:23:32;23.10;;;11.32;;
35803;SDS011;21924;51.934;7.414;2023-04-28T12:26:23;14.13;;;9.48;;
35803;SDS011;21924;51.934;7.414;2023-04-28T12:29:07;17.85;;;10.13;;
35803;SDS011;21924;51.934;7.414;2023-04-28T12:31:53;15.43;;;8.90;;
35803;SDS011;21924;51.934;7.414;2023-04-28T12:34:38;18.23;;;10.20;;
35803;SDS011;21924;51.934;7.414;2023-04-28T12:37:23;17.33;;;10.57;;
35803;SDS011;21924;51.934;7.414;2023-04-28T12:40:07;17.05;;;11.93;;
35803;SDS011;21924;51.934;7.414;2023-04-28T12:42:52;17.98;;;11.18;;
35803;SDS011;21924;51.934;7.414;2023-04-28T12:45:36;16.88;;;10.95;;
35803;SDS011;21924;51.934;7.414;2023-04-28T12:48:20;19.40;;;13.02;;
35803;SDS011;21924;51.934;7.414;2023-04-28T12:51:08;22.20;;;14.40;;
35803;SDS011;21924;51.934;7.414;2023-04-28T12:53:52;21.60;;;15.63;;
35803;SDS011;21924;51.934;7.414;2023-04-28T12:56:36;22.40;;;15.77;;
35803;SDS011;21924;51.934;7.414;2023-04-28T12:59:21;24.92;;;14.88;;
35803;SDS011;21924;51.934;7.414;2023-04-28T13:02:06;21.23;;;15.02;;
35803;SDS011;21924;51.934;7.414;2023-04-28T13:04:50;23.00;;;13.70;;
35803;SDS011;21924;51.934;7.414;2023-04-28T13:07:35;22.23;;;14.27;;
35803;SDS011;21924;51.934;7.414;2023-04-28T13:10:19;27.92;;;13.63;;
35803;SDS011;21924;51.934;7.414;2023-04-28T13:13:05;23.63;;;12.73;;
35803;SDS011;21924;51.934;7.414;2023-04-28T13:15:49;24.27;;;14.07;;
35803;SDS011;21924;51.934;7.414;2023-04-28T13:18:34;23.98;;;14.02;;
35803;SDS011;21924;51.934;7.414;2023-04-28T13:21:18;23.38;;;15.27;;
35803;SDS011;21924;51.934;7.414;2023-04-28T13:24:03;23.80;;;15.13;;
35803;SDS011;21924;51.934;7.414;2023-04-28T13:26:48;27.83;;;15.93;;
35803;SDS011;21924;51.934;7.414;2023-04-28T13:29:32;28.85;;;16.55;;
35803;SDS011;21924;51.934;7.414;2023-04-28T13:32:16;24.33;;;15.27;;
35803;SDS011;21924;51.934;7.414;2023-04-28T13:35:01;32.28;;;19.88;;
35803;SDS011;21924;51.934;7.414;2023-04-28T13:37:45;31.05;;;19.42;;
35803;SDS011;21924;51.934;7.414;2023-04-28T13:40:29;35.45;;;18.40;;
35803;SDS011;21924;51.934;7.414;2023-04-28T13:43:15;33.83;;;19.95;;
35803;SDS011;21924;51.934;7.414;2023-04-28T13:45:59;34.65;;;19.45;;
35803;SDS011;21924;51.934;7.414;2023-04-28T13:48:44;37.22;;;20.92;;
35803;SDS011;21924;51.934;7.414;2023-04-28T13:51:28;33.63;;;19.48;;
35803;SDS011;21924;51.934;7.414;2023-04-28T13:54:15;35.60;;;20.15;;
35803;SDS011;21924;51.934;7.414;2023-04-28T13:57:00;36.50;;;20.15;;
35803;SDS011;21924;51.934;7.414;2023-04-28T13:59:45;30.87;;;18.10;;
35803;SDS011;21924;51.934;7.414;2023-04-28T14:02:30;30.95;;;17.38;;
35803;SDS011;21924;51.934;7.414;2023-04-28T14:05:14;33.38;;;18.30;;
35803;SDS011;21924;51.934;7.414;2023-04-28T14:08:02;28.83;;;16.65;;
35803;SDS011;21924;51.934;7.414;2023-04-28T14:10:46;23.38;;;15.80;;
35803;SDS011;21924;51.934;7.414;2023-04-28T14:13:31;22.23;;;14.23;;
35803;SDS011;21924;51.934;7.414;2023-04-28T14:16:15;24.85;;;14.52;;
35803;SDS011;21924;51.934;7.414;2023-04-28T14:19:00;21.00;;;13.63;;
35803;SDS011;21924;51.934;7.414;2023-04-28T14:21:44;23.65;;;14.52;;
35803;SDS011;21924;51.934;7.414;2023-04-28T14:24:28;21.50;;;13.90;;
35803;SDS011;21924;51.934;7.414;2023-04-28T14:27:12;20.40;;;13.00;;
35803;SDS011;21924;51.934;7.414;2023-04-28T14:29:58;22.20;;;11.85;;
35803;SDS011;21924;51.934;7.414;2023-04-28T14:32:43;18.60;;;12.40;;
35803;SDS011;21924;51.934;7.414;2023-04-28T14:35:27;19.33;;;12.40;;
35803;SDS011;21924;51.934;7.414;2023-04-28T14:38:13;19.90;;;12.77;;
35803;SDS011;21924;51.934;7.414;2023-04-28T14:40:57;22.27;;;12.45;;
35803;SDS011;21924;51.934;7.414;2023-04-28T14:43:41;18.67;;;12.50;;
35803;SDS011;21924;51.934;7.414;2023-04-28T14:46:25;18.25;;;11.73;;
35803;SDS011;21924;51.934;7.414;2023-04-28T14:49:10;21.48;;;12.52;;
35803;SDS011;21924;51.934;7.414;2023-04-28T14:51:54;18.45;;;11.75;;
35803;SDS011;21924;51.934;7.414;2023-04-28T14:54:38;21.38;;;11.93;;
35803;SDS011;21924;51.934;7.414;2023-04-28T14:57:23;14.75;;;10.35;;
35803;SDS011;21924;51.934;7.414;2023-04-28T15:00:08;18.33;;;10.68;;
35803;SDS011;21924;51.934;7.414;2023-04-28T15:02:52;21.40;;;10.25;;
35803;SDS011;21924;51.934;7.414;2023-04-28T15:05:37;17.17;;;10.68;;
35803;SDS011;21924;51.934;7.414;2023-04-28T15:08:21;15.63;;;10.20;;
35803;SDS011;21924;51.934;7.414;2023-04-28T15:11:06;20.27;;;11.13;;
35803;SDS011;21924;51.934;7.414;2023-04-28T15:13:50;18.10;;;10.27;;
35803;SDS011;21924;51.934;7.414;2023-04-28T15:16:34;19.73;;;11.13;;
35803;SDS011;21924;51.934;7.414;2023-04-28T15:19:19;17.70;;;10.32;;
35803;SDS011;21924;51.934;7.414;2023-04-28T15:22:03;16.85;;;9.98;;
35803;SDS011;21924;51.934;7.414;2023-04-28T15:24:47;14.45;;;9.50;;
35803;SDS011;21924;51.934;7.414;2023-04-28T15:27:31;17.30;;;10.00;;
35803;SDS011;21924;51.934;7.414;2023-04-28T15:30:16;15.82;;;9.80;;
35803;SDS011;21924;51.934;7.414;2023-04-28T15:33:01;15.97;;;9.47;;
35803;SDS011;21924;51.934;7.414;2023-04-28T15:35:47;16.27;;;10.32;;
35803;SDS011;21924;51.934;7.414;2023-04-28T15:38:31;17.50;;;10.75;;
35803;SDS011;21924;51.934;7.414;2023-04-28T15:41:16;18.98;;;8.73;;
35803;SDS011;21924;51.934;7.414;2023-04-28T15:44:00;15.13;;;9.23;;
35803;SDS011;21924;51.934;7.414;2023-04-28T15:46:45;14.15;;;8.07;;
35803;SDS011;21924;51.934;7.414;2023-04-28T15:49:29;14.00;;;7.78;;
35803;SDS011;21924;51.934;7.414;2023-04-28T15:52:14;9.90;;;5.55;;
35803;SDS011;21924;51.934;7.414;2023-04-28T15:54:59;8.90;;;5.68;;
35803;SDS011;21924;51.934;7.414;2023-04-28T15:57:43;10.55;;;5.70;;
35803;SDS011;21924;51.934;7.414;2023-04-28T16:00:28;8.87;;;5.37;;
35803;SDS011;21924;51.934;7.414;2023-04-28T16:03:13;6.95;;;4.78;;
35803;SDS011;21924;51.934;7.414;2023-04-28T16:05:57;7.88;;;4.57;;
35803;SDS011;21924;51.934;7.414;2023-04-28T16:08:42;7.97;;;4.47;;
35803;SDS011;21924;51.934;7.414;2023-04-28T16:11:26;7.03;;;4.40;;
35803;SDS011;21924;51.934;7.414;2023-04-28T16:14:12;6.78;;;4.75;;
35803;SDS011;21924;51.934;7.414;2023-04-28T16:16:56;6.50;;;4.50;;
35803;SDS011;21924;51.934;7.414;2023-04-28T16:19:40;8.65;;;5.00;;
35803;SDS011;21924;51.934;7.414;2023-04-28T16:22:25;6.65;;;4.03;;
35803;SDS011;21924;51.934;7.414;2023-04-28T16:25:10;8.27;;;5.40;;
35803;SDS011;21924;51.934;7.414;2023-04-28T16:27:55;8.20;;;4.90;;
35803;SDS011;21924;51.934;7.414;2023-04-28T16:30:39;8.30;;;5.40;;
35803;SDS011;21924;51.934;7.414;2023-04-28T16:33:23;9.48;;;5.82;;
35803;SDS011;21924;51.934;7.414;2023-04-28T16:36:08;11.23;;;6.47;;
35803;SDS011;21924;51.934;7.414;2023-04-28T16:38:52;10.57;;;5.80;;
35803;SDS011;21924;51.934;7.414;2023-04-28T16:41:36;9.65;;;5.07;;
35803;SDS011;21924;51.934;7.414;2023-04-28T16:44:21;9.20;;;5.60;;
35803;SDS011;21924;51.934;7.414;2023-04-28T16:47:05;7.85;;;5.38;;
35803;SDS011;21924;51.934;7.414;2023-04-28T16:49:50;8.95;;;5.25;;
35803;SDS011;21924;51.934;7.414;2023-04-28T16:52:34;9.27;;;5.57;;